createdAt,value
2023-05-23T00:00:33.759Z,95909.94
2023-05-23T00:01:38.440Z,95911.59
2023-05-23T00:02:43.203Z,95907.13
2023-05-23T00:03:49.657Z,95912.88
2023-05-23T00:04:52.718Z,95916.38
2023-05-23T00:05:59.263Z,95910.34
2023-05-23T00:07:01.323Z,95914.00
2023-05-23T00:08:06.588Z,95913.50
2023-05-23T00:09:08.714Z,95910.56
2023-05-23T00:10:14.326Z,95917.34
2023-05-23T00:11:16.733Z,95918.06
2023-05-23T00:12:21.447Z,95917.66
2023-05-23T00:13:23.596Z,95916.13
2023-05-23T00:14:28.314Z,95927.47
2023-05-23T00:15:31.218Z,95923.50
2023-05-23T00:16:41.445Z,95916.59
2023-05-23T00:17:47.187Z,95922.03
2023-05-23T00:18:52.291Z,95928.50
2023-05-23T00:19:56.352Z,95916.38
2023-05-23T00:21:02.556Z,95921.00
2023-05-23T00:22:05.728Z,95921.41
2023-05-23T00:23:10.908Z,95917.66
2023-05-23T00:24:13.257Z,95917.66
2023-05-23T00:25:17.955Z,95913.28
2023-05-23T00:26:20.005Z,95912.03
2023-05-23T00:27:24.685Z,95908.47
2023-05-23T00:28:27.372Z,95913.28
2023-05-23T00:29:32.105Z,95908.38
2023-05-23T00:30:34.666Z,95906.59
2023-05-23T00:31:39.868Z,95906.59
2023-05-23T00:32:42.234Z,95915.38
2023-05-23T00:33:49.555Z,95909.41
2023-05-23T00:34:54.448Z,95910.59
2023-05-23T00:35:59.109Z,95915.81
2023-05-23T00:37:02.434Z,95913.91
2023-05-23T00:38:07.973Z,95914.75
2023-05-23T00:39:10.169Z,95912.16
2023-05-23T00:40:15.661Z,95913.06
2023-05-23T00:41:18.836Z,95912.03
2023-05-23T00:42:23.524Z,95913.91
2023-05-23T00:43:25.954Z,95918.28
2023-05-23T00:44:30.957Z,95915.16
2023-05-23T00:45:33.051Z,95917.88
2023-05-23T00:46:37.789Z,95916.41
2023-05-23T00:47:40.468Z,95912.88
2023-05-23T00:48:45.772Z,95927.06
2023-05-23T00:49:50.556Z,95923.00
2023-05-23T00:50:55.988Z,95920.81
2023-05-23T00:51:58.354Z,95923.59
2023-05-23T00:53:04.266Z,95924.53
2023-05-23T00:54:07.357Z,95919.94
2023-05-23T00:55:13.500Z,95915.28
2023-05-23T00:56:15.732Z,95914.75
2023-05-23T00:57:20.813Z,95920.78
2023-05-23T00:58:23.719Z,95917.69
2023-05-23T00:59:29.439Z,95921.19
2023-05-23T01:00:34.385Z,95919.34
2023-05-23T01:01:40.487Z,95917.25
2023-05-23T01:02:45.410Z,95931.53
2023-05-23T01:03:50.383Z,95920.28
2023-05-23T01:04:55.987Z,95920.16
2023-05-23T01:06:00.657Z,95931.25
2023-05-23T01:07:02.965Z,95925.41
2023-05-23T01:08:08.568Z,95930.41
2023-05-23T01:09:10.736Z,95923.41
2023-05-23T01:10:16.344Z,95926.53
2023-05-23T01:11:28.356Z,95928.22
2023-05-23T01:12:44.076Z,95929.78
2023-05-23T01:13:53.382Z,95930.16
2023-05-23T01:15:06.773Z,95924.34
2023-05-23T01:16:14.614Z,95932.66
2023-05-23T01:17:25.947Z,95929.03
2023-05-23T01:18:33.721Z,95931.22
2023-05-23T01:20:09.379Z,95927.56
2023-05-23T01:21:16.324Z,95929.75
2023-05-23T01:22:31.278Z,95926.31
2023-05-23T01:24:06.655Z,95930.91
2023-05-23T01:25:31.386Z,95931.41
2023-05-23T01:26:45.031Z,95931.94
2023-05-23T01:27:58.212Z,95928.09
2023-05-23T01:29:10.365Z,95926.53
2023-05-23T01:30:18.276Z,95930.59
2023-05-23T01:31:22.346Z,95928.00
2023-05-23T01:32:30.187Z,95929.34
2023-05-23T01:33:33.462Z,95921.00
2023-05-23T01:34:38.402Z,95929.75
2023-05-23T01:35:40.864Z,95929.13
2023-05-23T01:36:46.911Z,95933.91
2023-05-23T01:37:48.986Z,95930.59
2023-05-23T01:38:53.656Z,95928.06
2023-05-23T01:39:55.973Z,95934.03
2023-05-23T01:41:00.760Z,95930.81
2023-05-23T01:42:03.355Z,95932.47
2023-05-23T01:43:11.047Z,95933.09
2023-05-23T01:44:13.442Z,95938.63
2023-05-23T01:45:19.563Z,95933.53
2023-05-23T01:46:22.748Z,95934.97
2023-05-23T01:47:27.601Z,95937.91
2023-05-23T01:48:30.610Z,95943.13
2023-05-23T01:49:38.282Z,95936.25
2023-05-23T01:50:41.179Z,95943.13
2023-05-23T01:51:45.870Z,95931.03
2023-05-23T01:52:48.342Z,95936.03
2023-05-23T01:53:53.885Z,95941.13
2023-05-23T01:54:56.825Z,95944.69
2023-05-23T01:56:03.770Z,95937.47
2023-05-23T01:57:06.584Z,95938.31
2023-05-23T01:58:14.177Z,95944.19
2023-05-23T01:59:16.309Z,95944.19
2023-05-23T02:00:21.507Z,95943.13
2023-05-23T02:01:23.858Z,95937.06
2023-05-23T02:02:28.790Z,95942.59
2023-05-23T02:03:31.062Z,95945.19
2023-05-23T02:04:35.829Z,95940.84
2023-05-23T02:05:38.052Z,95946.69
2023-05-23T02:06:42.888Z,95936.84
2023-05-23T02:07:44.986Z,95943.72
2023-05-23T02:08:49.666Z,95941.97
2023-05-23T02:09:52.068Z,95948.84
2023-05-23T02:10:56.749Z,95948.84
2023-05-23T02:11:59.816Z,95950.50
2023-05-23T02:13:04.488Z,95946.88
2023-05-23T02:14:11.380Z,95943.22
2023-05-23T02:15:17.601Z,95951.03
2023-05-23T02:16:19.822Z,95948.22
2023-05-23T02:17:25.012Z,95950.22
2023-05-23T02:18:29.486Z,95957.81
2023-05-23T02:19:34.272Z,95951.66
2023-05-23T02:20:36.596Z,95946.03
2023-05-23T02:21:41.508Z,95955.81
2023-05-23T02:22:43.606Z,95948.09
2023-05-23T02:23:48.347Z,95949.78
2023-05-23T02:24:50.625Z,95952.47
2023-05-23T02:25:55.404Z,95955.00
2023-05-23T02:26:57.473Z,95948.44
2023-05-23T02:28:02.179Z,95946.03
2023-05-23T02:29:04.289Z,95944.16
2023-05-23T02:30:13.106Z,95950.81
2023-05-23T02:31:15.279Z,95943.94
2023-05-23T02:32:20.073Z,95948.84
2023-05-23T02:33:22.280Z,95938.94
2023-05-23T02:34:27.059Z,95946.25
2023-05-23T02:35:29.114Z,95948.13
2023-05-23T02:36:34.606Z,95947.91
2023-05-23T02:37:36.741Z,95948.00
2023-05-23T02:38:41.459Z,95943.72
2023-05-23T02:39:43.848Z,95939.97
2023-05-23T02:40:50.704Z,95944.25
2023-05-23T02:41:52.846Z,95941.41
2023-05-23T02:42:57.615Z,95939.75
2023-05-23T02:43:59.950Z,95943.94
2023-05-23T02:45:04.778Z,95939.75
2023-05-23T02:46:09.739Z,95935.38
2023-05-23T02:47:14.424Z,95935.25
2023-05-23T02:48:16.824Z,95942.59
2023-05-23T02:49:21.679Z,95937.69
2023-05-23T02:50:23.952Z,95941.34
2023-05-23T02:51:29.019Z,95942.69
2023-05-23T02:52:31.105Z,95939.25
2023-05-23T02:53:36.797Z,95945.19
2023-05-23T02:54:38.896Z,95947.16
2023-05-23T02:55:43.598Z,95949.69
2023-05-23T02:56:46.459Z,95947.69
2023-05-23T02:57:51.445Z,95954.38
2023-05-23T02:58:53.626Z,95946.63
2023-05-23T02:59:58.331Z,95942.88
2023-05-23T03:01:00.397Z,95942.03
2023-05-23T03:02:08.045Z,95942.97
2023-05-23T03:03:10.404Z,95949.25
2023-05-23T03:04:15.111Z,95953.41
2023-05-23T03:05:17.489Z,95952.81
2023-05-23T03:06:22.857Z,95946.41
2023-05-23T03:07:28.595Z,95955.06
2023-05-23T03:08:33.950Z,95948.09
2023-05-23T03:09:36.246Z,95943.72
2023-05-23T03:10:41.065Z,95951.41
2023-05-23T03:11:43.325Z,95953.09
2023-05-23T03:12:48.098Z,95951.19
2023-05-23T03:13:50.308Z,95951.41
2023-05-23T03:14:55.117Z,95951.94
2023-05-23T03:15:57.442Z,95956.19
2023-05-23T03:17:04.293Z,95950.97
2023-05-23T03:18:09.441Z,95959.75
2023-05-23T03:19:14.344Z,95957.06
2023-05-23T03:20:16.907Z,95958.81
2023-05-23T03:21:21.687Z,95947.44
2023-05-23T03:22:23.893Z,95956.00
2023-05-23T03:23:28.742Z,95954.84
2023-05-23T03:24:32.259Z,95958.50
2023-05-23T03:25:37.062Z,95951.63
2023-05-23T03:26:39.466Z,95953.28
2023-05-23T03:27:44.391Z,95953.28
2023-05-23T03:28:46.631Z,95956.63
2023-05-23T03:29:51.748Z,95955.78
2023-05-23T03:30:54.029Z,95955.88
2023-05-23T03:31:58.860Z,95957.34
2023-05-23T03:33:02.265Z,95959.97
2023-05-23T03:34:09.686Z,95962.44
2023-05-23T03:35:11.989Z,95965.78
2023-05-23T03:36:16.802Z,95959.41
2023-05-23T03:37:19.010Z,95975.19
2023-05-23T03:38:23.848Z,95971.84
2023-05-23T03:39:26.146Z,95968.63
2023-05-23T03:40:30.958Z,95978.34
2023-05-23T03:41:33.174Z,95968.72
2023-05-23T03:42:39.675Z,95973.84
2023-05-23T03:43:41.936Z,95976.47
2023-05-23T03:44:46.724Z,95978.13
2023-05-23T03:45:48.932Z,95971.94
2023-05-23T03:46:53.792Z,95977.28
2023-05-23T03:47:56.011Z,95979.59
2023-05-23T03:49:00.864Z,95971.94
2023-05-23T03:50:06.726Z,95978.13
2023-05-23T03:51:11.543Z,95975.19
2023-05-23T03:52:13.804Z,95975.78
2023-05-23T03:53:18.648Z,95973.28
2023-05-23T03:54:20.854Z,95963.69
2023-05-23T03:55:25.798Z,95972.97
2023-05-23T03:56:28.009Z,95970.34
2023-05-23T03:57:32.774Z,95966.31
2023-05-23T03:58:35.080Z,95966.53
2023-05-23T03:59:39.897Z,95967.44
2023-05-23T04:00:44.703Z,95973.91
2023-05-23T04:01:47.181Z,95965.44
2023-05-23T04:02:52.833Z,95971.75
2023-05-23T04:03:55.281Z,95971.31
2023-05-23T04:05:01.004Z,95975.34
2023-05-23T04:06:06.193Z,95967.00
2023-05-23T04:07:11.589Z,95972.22
2023-05-23T04:08:13.890Z,95971.19
2023-05-23T04:09:18.673Z,95966.78
2023-05-23T04:10:21.068Z,95968.78
2023-05-23T04:11:25.889Z,95973.91
2023-05-23T04:12:30.916Z,95967.00
2023-05-23T04:13:35.818Z,95971.81
2023-05-23T04:14:39.679Z,95969.31
2023-05-23T04:15:45.347Z,95965.13
2023-05-23T04:16:48.547Z,95967.28
2023-05-23T04:17:53.574Z,95961.16
2023-05-23T04:18:55.897Z,95962.59
2023-05-23T04:20:01.284Z,95965.19
2023-05-23T04:21:06.730Z,95966.25
2023-05-23T04:22:11.518Z,95964.25
2023-05-23T04:23:13.857Z,95964.25
2023-05-23T04:24:18.531Z,95966.66
2023-05-23T04:25:21.097Z,95966.25
2023-05-23T04:26:25.868Z,95961.31
2023-05-23T04:27:27.920Z,95966.16
2023-05-23T04:28:32.602Z,95971.25
2023-05-23T04:29:36.258Z,95964.03
2023-05-23T04:30:41.185Z,95974.09
2023-05-23T04:31:46.360Z,95980.13
2023-05-23T04:32:51.365Z,95976.69
2023-05-23T04:33:53.505Z,95982.53
2023-05-23T04:34:58.961Z,95982.44
2023-05-23T04:36:01.789Z,95985.13
2023-05-23T04:37:09.956Z,95979.72
2023-05-23T04:38:13.839Z,95986.59
2023-05-23T04:39:18.694Z,95985.88
2023-05-23T04:40:21.040Z,95988.25
2023-05-23T04:41:26.161Z,95989.72
2023-05-23T04:42:29.664Z,95989.22
2023-05-23T04:43:34.499Z,95992.56
2023-05-23T04:44:37.701Z,95988.75
2023-05-23T04:45:42.493Z,95986.75
2023-05-23T04:46:45.800Z,95994.22
2023-05-23T04:47:50.729Z,95994.13
2023-05-23T04:48:53.552Z,95996.38
2023-05-23T04:49:58.266Z,95992.44
2023-05-23T04:51:02.396Z,95995.69
2023-05-23T04:52:09.679Z,95990.72
2023-05-23T04:53:11.788Z,95991.56
2023-05-23T04:54:16.524Z,95991.44
2023-05-23T04:55:20.239Z,95994.78
2023-05-23T04:56:27.485Z,95991.72
2023-05-23T04:57:29.638Z,95994.94
2023-05-23T04:58:34.740Z,95986.25
2023-05-23T04:59:38.472Z,95992.97
2023-05-23T05:00:43.595Z,95998.66
2023-05-23T05:01:46.092Z,96004.16
2023-05-23T05:02:50.806Z,95998.94
2023-05-23T05:03:53.103Z,95997.53
2023-05-23T05:04:57.838Z,95997.88
2023-05-23T05:05:59.937Z,95998.69
2023-05-23T05:07:04.698Z,95998.03
2023-05-23T05:08:09.390Z,95992.63
2023-05-23T05:09:14.126Z,95994.91
2023-05-23T05:10:18.105Z,95998.72
2023-05-23T05:11:22.813Z,95995.03
2023-05-23T05:12:24.895Z,95999.91
2023-05-23T05:13:29.574Z,95999.78
2023-05-23T05:14:31.751Z,96007.13
2023-05-23T05:15:36.469Z,95999.91
2023-05-23T05:16:38.612Z,96002.38
2023-05-23T05:17:43.399Z,95999.78
2023-05-23T05:18:45.697Z,96002.63
2023-05-23T05:19:50.413Z,95999.28
2023-05-23T05:20:55.152Z,96005.97
2023-05-23T05:21:57.989Z,96000.72
2023-05-23T05:23:03.128Z,96005.47
2023-05-23T05:24:09.861Z,96004.06
2023-05-23T05:25:14.620Z,96007.03
2023-05-23T05:26:17.373Z,96008.50
2023-05-23T05:27:22.046Z,96005.56
2023-05-23T05:28:24.789Z,96001.88
2023-05-23T05:29:29.688Z,96008.13
2023-05-23T05:30:33.883Z,96012.38
2023-05-23T05:31:38.900Z,96001.69
2023-05-23T05:32:42.373Z,96011.72
2023-05-23T05:33:47.043Z,96012.09
2023-05-23T05:34:49.608Z,96009.72
2023-05-23T05:35:54.844Z,96021.38
2023-05-23T05:36:57.130Z,96007.97
2023-05-23T05:38:02.796Z,96013.44
2023-05-23T05:39:10.188Z,96008.47
2023-05-23T05:40:12.867Z,96011.91
2023-05-23T05:41:17.645Z,96017.50
2023-05-23T05:42:19.790Z,96010.50
2023-05-23T05:43:24.522Z,96008.81
2023-05-23T05:44:29.407Z,96011.69
2023-05-23T05:45:34.092Z,96000.13
2023-05-23T05:46:36.234Z,96008.47
2023-05-23T05:47:41.151Z,96001.09
2023-05-23T05:48:45.912Z,96009.69
2023-05-23T05:49:48.049Z,96005.03
2023-05-23T05:50:52.809Z,96006.00
2023-05-23T05:51:54.890Z,95998.81
2023-05-23T05:52:59.594Z,96000.63
2023-05-23T05:54:04.283Z,95991.31
2023-05-23T05:55:11.580Z,95995.81
2023-05-23T05:56:16.298Z,95995.69
2023-05-23T05:57:18.392Z,95994.50
2023-05-23T05:58:23.093Z,95990.59
2023-05-23T05:59:25.845Z,96002.25
2023-05-23T06:00:31.015Z,96001.78
2023-05-23T06:01:35.076Z,95992.47
2023-05-23T06:02:39.907Z,95991.97
2023-05-23T06:03:44.997Z,95996.78
2023-05-23T06:04:47.395Z,95996.16
2023-05-23T06:05:52.151Z,95997.44
2023-05-23T06:06:54.319Z,96004.13
2023-05-23T06:07:59.038Z,96002.44
2023-05-23T06:09:01.130Z,96003.16
2023-05-23T06:10:05.851Z,95997.66
2023-05-23T06:11:13.189Z,96002.19
2023-05-23T06:12:15.401Z,96003.88
2023-05-23T06:13:20.113Z,96010.19
2023-05-23T06:14:22.371Z,96009.13
2023-05-23T06:15:27.533Z,96001.81
2023-05-23T06:16:29.677Z,96004.09
2023-05-23T06:17:34.530Z,96005.03
2023-05-23T06:18:36.687Z,96009.44
2023-05-23T06:19:41.599Z,96005.94
2023-05-23T06:20:43.775Z,96002.03
2023-05-23T06:21:48.463Z,96010.22
2023-05-23T06:22:50.652Z,96009.28
2023-05-23T06:23:55.347Z,96006.09
2023-05-23T06:24:57.418Z,96002.88
2023-05-23T06:26:02.423Z,96005.19
2023-05-23T06:27:07.251Z,96005.41
2023-05-23T06:28:11.980Z,96002.50
2023-05-23T06:29:14.135Z,96005.44
2023-05-23T06:30:19.413Z,96000.19
2023-05-23T06:31:21.717Z,96004.31
2023-05-23T06:32:26.719Z,96009.53
2023-05-23T06:33:31.748Z,96005.69
2023-05-23T06:34:33.947Z,96009.88
2023-05-23T06:35:38.735Z,96014.28
2023-05-23T06:36:42.344Z,96012.38
2023-05-23T06:37:48.604Z,96021.19
2023-05-23T06:38:50.814Z,96016.94
2023-05-23T06:39:55.565Z,96022.78
2023-05-23T06:40:57.789Z,96021.59
2023-05-23T06:42:02.735Z,96021.94
2023-05-23T06:43:07.822Z,96018.59
2023-05-23T06:44:12.562Z,96020.31
2023-05-23T06:45:16.489Z,96020.06
2023-05-23T06:46:21.833Z,96021.53
2023-05-23T06:47:24.127Z,96019.88
2023-05-23T06:48:28.842Z,96019.09
2023-05-23T06:49:31.330Z,96024.56
2023-05-23T06:50:36.065Z,96010.13
2023-05-23T06:51:38.237Z,96011.31
2023-05-23T06:52:43.042Z,96011.94
2023-05-23T06:53:45.163Z,96007.38
2023-05-23T06:54:50.009Z,96013.09
2023-05-23T06:55:54.681Z,96014.69
2023-05-23T06:56:57.393Z,96012.53
2023-05-23T06:58:04.328Z,96012.50
2023-05-23T06:59:11.616Z,96017.63
2023-05-23T07:00:17.477Z,96010.19
2023-05-23T07:01:22.282Z,96012.81
2023-05-23T07:02:27.180Z,96014.50
2023-05-23T07:03:29.302Z,96016.63
2023-05-23T07:04:34.010Z,96021.34
2023-05-23T07:05:39.293Z,96018.88
2023-05-23T07:06:45.700Z,96019.56
2023-05-23T07:07:47.789Z,96026.06
2023-05-23T07:08:52.513Z,96023.84
2023-05-23T07:09:54.749Z,96020.66
2023-05-23T07:10:59.442Z,96017.19
2023-05-23T07:12:04.172Z,96019.53
2023-05-23T07:13:06.295Z,96024.03
2023-05-23T07:14:13.708Z,96034.16
2023-05-23T07:15:16.494Z,96027.38
2023-05-23T07:16:21.662Z,96025.84
2023-05-23T07:17:23.919Z,96035.16
2023-05-23T07:18:28.695Z,96030.13
2023-05-23T07:19:33.389Z,96037.91
2023-05-23T07:20:38.102Z,96043.69
2023-05-23T07:21:42.750Z,96043.44
2023-05-23T07:22:47.421Z,96035.44
2023-05-23T07:23:49.608Z,96035.69
2023-05-23T07:24:54.298Z,96035.47
2023-05-23T07:26:02.591Z,96032.28
2023-05-23T07:27:08.302Z,96027.59
2023-05-23T07:28:13.487Z,96038.25
2023-05-23T07:29:20.967Z,96035.50
2023-05-23T07:30:23.333Z,96029.66
2023-05-23T07:31:28.083Z,96027.50
2023-05-23T07:32:32.847Z,96010.56
2023-05-23T07:33:37.711Z,96028.75
2023-05-23T07:34:39.875Z,96027.75
2023-05-23T07:35:44.610Z,96021.53
2023-05-23T07:36:50.518Z,96024.44
2023-05-23T07:37:55.531Z,96023.03
2023-05-23T07:39:00.214Z,96026.34
2023-05-23T07:40:04.980Z,96032.47
2023-05-23T07:41:12.148Z,96037.75
2023-05-23T07:42:17.247Z,96033.03
2023-05-23T07:43:21.953Z,96038.81
2023-05-23T07:44:29.340Z,96044.38
2023-05-23T07:45:34.049Z,96032.44
2023-05-23T07:46:36.489Z,96038.94
2023-05-23T07:47:41.281Z,96044.63
2023-05-23T07:48:43.411Z,96047.44
2023-05-23T07:49:48.114Z,96050.97
2023-05-23T07:50:50.316Z,96055.97
2023-05-23T07:51:55.016Z,96049.31
2023-05-23T07:52:59.698Z,96060.31
2023-05-23T07:54:01.850Z,96051.75
2023-05-23T07:55:07.023Z,96064.44
2023-05-23T07:56:09.198Z,96057.28
2023-05-23T07:57:16.826Z,96065.44
2023-05-23T07:58:21.722Z,96062.69
2023-05-23T07:59:27.165Z,96067.97
2023-05-23T08:00:32.456Z,96070.81
2023-05-23T08:01:34.866Z,96067.91
2023-05-23T08:02:39.607Z,96067.69
2023-05-23T08:03:44.355Z,96059.44
2023-05-23T08:04:50.309Z,96066.38
2023-05-23T08:05:55.040Z,96068.03
2023-05-23T08:08:04.777Z,96065.28
2023-05-23T08:09:10.124Z,96060.22
2023-05-23T08:10:15.044Z,96064.03
2023-05-23T08:11:19.726Z,96063.22
2023-05-23T08:12:21.884Z,96067.84
2023-05-23T08:13:26.978Z,96064.84
2023-05-23T08:14:46.392Z,96071.28
2023-05-23T08:15:55.929Z,96065.00
2023-05-23T08:17:00.793Z,96064.69
2023-05-23T08:18:06.328Z,96054.50
2023-05-23T08:19:08.829Z,96059.63
2023-05-23T08:20:15.075Z,96062.47
2023-05-23T08:21:17.307Z,96062.25
2023-05-23T08:22:22.035Z,96065.31
2023-05-23T08:23:26.810Z,96056.81
2023-05-23T08:24:30.537Z,96054.44
2023-05-23T08:25:35.262Z,96063.06
2023-05-23T08:26:40.013Z,96063.56
2023-05-23T08:27:44.696Z,96068.56
2023-05-23T08:28:49.739Z,96070.00
2023-05-23T08:29:57.074Z,96068.09
2023-05-23T08:31:01.981Z,96071.44
2023-05-23T08:32:04.478Z,96079.38
2023-05-23T08:33:09.276Z,96079.16
2023-05-23T08:34:14.793Z,96076.25
2023-05-23T08:35:16.884Z,96080.00
2023-05-23T08:36:21.709Z,96073.56
2023-05-23T08:37:26.480Z,96075.94
2023-05-23T08:38:28.584Z,96085.47
2023-05-23T08:39:33.318Z,96084.63
2023-05-23T08:40:36.977Z,96076.25
2023-05-23T08:41:42.604Z,96086.03
2023-05-23T08:42:44.897Z,96080.66
2023-05-23T08:43:50.104Z,96077.19
2023-05-23T08:44:57.562Z,96089.56
2023-05-23T08:45:59.885Z,96085.41
2023-05-23T08:47:08.304Z,96089.88
2023-05-23T08:48:16.641Z,96093.97
2023-05-23T08:49:18.923Z,96103.00
2023-05-23T08:50:23.989Z,96094.81
2023-05-23T08:51:31.859Z,96095.66
2023-05-23T08:52:38.115Z,96102.81
2023-05-23T08:53:43.075Z,96097.56
2023-05-23T08:54:48.065Z,96098.78
2023-05-23T08:55:51.780Z,96103.78
2023-05-23T08:56:56.678Z,96097.09
2023-05-23T08:57:59.626Z,96097.09
2023-05-23T08:59:04.875Z,96098.03
2023-05-23T09:00:15.146Z,96102.06
2023-05-23T09:01:21.339Z,96101.22
2023-05-23T09:02:23.870Z,96094.75
2023-05-23T09:03:29.970Z,96093.41
2023-05-23T09:04:33.200Z,96091.72
2023-05-23T09:05:37.958Z,96092.53
2023-05-23T09:06:42.718Z,96093.75
2023-05-23T09:07:49.791Z,96086.66
2023-05-23T09:08:52.240Z,96092.59
2023-05-23T09:09:57.019Z,96087.72
2023-05-23T09:11:02.976Z,96089.31
2023-05-23T09:12:08.353Z,96099.13
2023-05-23T09:13:10.672Z,96087.84
2023-05-23T09:14:15.706Z,96096.31
2023-05-23T09:15:24.094Z,96096.31
2023-05-23T09:16:36.067Z,96101.66
2023-05-23T09:17:39.409Z,96105.16
2023-05-23T09:18:46.600Z,96108.19
2023-05-23T09:19:51.907Z,96112.50
2023-05-23T09:20:56.902Z,96121.28
2023-05-23T09:21:59.193Z,96118.41
2023-05-23T09:23:08.676Z,96118.03
2023-05-23T09:24:11.068Z,96116.47
2023-05-23T09:25:15.992Z,96118.88
2023-05-23T09:26:18.132Z,96117.22
2023-05-23T09:27:22.973Z,96107.53
2023-05-23T09:28:25.210Z,96103.78
2023-05-23T09:29:31.026Z,96103.47
2023-05-23T09:30:38.749Z,96107.53
2023-05-23T09:31:41.024Z,96108.44
2023-05-23T09:32:46.318Z,96108.19
2023-05-23T09:33:52.457Z,96103.59
2023-05-23T09:34:58.533Z,96105.00
2023-05-23T09:36:03.265Z,96103.25
2023-05-23T09:37:06.239Z,96107.56
2023-05-23T09:38:11.615Z,96100.25
2023-05-23T09:39:16.642Z,96104.16
2023-05-23T09:40:19.080Z,96108.25
2023-05-23T09:41:25.316Z,96104.16
2023-05-23T09:42:35.891Z,96104.50
2023-05-23T09:43:38.616Z,96105.75
2023-05-23T09:44:45.052Z,96099.53
2023-05-23T09:45:52.314Z,96109.06
2023-05-23T09:46:56.986Z,96101.22
2023-05-23T09:47:59.223Z,96098.50
2023-05-23T09:49:03.996Z,96098.16
2023-05-23T09:50:09.035Z,96097.09
2023-05-23T09:51:13.761Z,96091.97
2023-05-23T09:52:15.903Z,96107.44
2023-05-23T09:53:22.814Z,96106.81
2023-05-23T09:54:25.152Z,96104.06
2023-05-23T09:55:30.160Z,96104.13
2023-05-23T09:56:34.358Z,96096.09
2023-05-23T09:57:43.573Z,96101.25
2023-05-23T09:58:48.573Z,96105.91
2023-05-23T09:59:57.058Z,96106.34
2023-05-23T10:01:04.092Z,96100.28
2023-05-23T10:02:11.068Z,96099.25
2023-05-23T10:03:14.563Z,96112.19
2023-05-23T10:04:24.476Z,96115.66
2023-05-23T10:05:36.795Z,96102.66
2023-05-23T10:06:47.936Z,96108.53
2023-05-23T10:07:50.971Z,96107.91
2023-05-23T10:09:00.248Z,96103.31
2023-05-23T10:10:09.577Z,96102.50
2023-05-23T10:12:05.822Z,96097.00
2023-05-23T10:13:11.247Z,96094.00
2023-05-23T10:14:13.799Z,96103.41
2023-05-23T10:15:19.923Z,96088.88
2023-05-23T10:16:29.318Z,96085.94
2023-05-23T10:17:43.105Z,96082.19
2023-05-23T10:18:45.994Z,96081.50
2023-05-23T10:19:56.066Z,96071.97
2023-05-23T10:21:05.898Z,96089.28
2023-05-23T10:22:13.811Z,96092.19
2023-05-23T10:23:17.691Z,96091.47
2023-05-23T10:24:23.233Z,96099.44
2023-05-23T10:25:26.098Z,96114.16
2023-05-23T10:26:31.394Z,96108.75
2023-05-23T10:27:36.298Z,96107.91
2023-05-23T10:28:39.618Z,96117.13
2023-05-23T10:29:44.756Z,96109.81
2023-05-23T10:30:49.509Z,96093.50
2023-05-23T10:31:56.647Z,96099.81
2023-05-23T10:33:02.493Z,96098.88
2023-05-23T10:34:14.645Z,96099.16
2023-05-23T10:35:27.109Z,96110.34
2023-05-23T10:36:38.687Z,96092.84
2023-05-23T10:37:49.754Z,96097.47
2023-05-23T10:39:01.958Z,96079.88
2023-05-23T10:40:11.027Z,96083.38
2023-05-23T10:41:21.900Z,96073.38
2023-05-23T10:42:33.648Z,96069.69
2023-05-23T10:43:47.648Z,96064.63
2023-05-23T10:44:49.801Z,96073.78
2023-05-23T10:45:54.663Z,96071.63
2023-05-23T10:47:04.702Z,96079.44
2023-05-23T10:48:23.312Z,96087.00
2023-05-23T10:49:39.079Z,96085.78
2023-05-23T10:50:44.026Z,96089.03
2023-05-23T10:51:51.054Z,96095.94
2023-05-23T10:52:56.588Z,96082.06
2023-05-23T10:53:58.832Z,96080.91
2023-05-23T10:55:03.728Z,96097.13
2023-05-23T10:56:10.185Z,96084.44
2023-05-23T10:57:19.596Z,96069.59
2023-05-23T10:58:23.582Z,96066.16
2023-05-23T10:59:31.213Z,96065.47
2023-05-23T11:00:33.549Z,96067.75
2023-05-23T11:01:42.593Z,96048.91
2023-05-23T11:02:57.578Z,96048.47
2023-05-23T11:04:06.023Z,96048.22
2023-05-23T11:05:24.873Z,96034.75
2023-05-23T11:06:35.764Z,96029.53
2023-05-23T11:07:40.514Z,96023.03
2023-05-23T11:08:48.918Z,96005.31
2023-05-23T11:10:04.689Z,95996.34
2023-05-23T11:11:09.487Z,95994.81
2023-05-23T11:12:14.284Z,96002.47
2023-05-23T11:13:16.365Z,95990.69
2023-05-23T11:14:21.585Z,96006.41
2023-05-23T11:15:26.746Z,95990.38
2023-05-23T11:16:30.443Z,96007.72
2023-05-23T11:17:36.254Z,96007.88
2023-05-23T11:18:41.026Z,96005.75
2023-05-23T11:19:59.915Z,96013.22
2023-05-23T11:21:06.023Z,96027.69
2023-05-23T11:22:09.709Z,96024.41
2023-05-23T11:23:15.516Z,96022.59
2023-05-23T11:24:17.847Z,96017.16
2023-05-23T11:25:23.218Z,96023.00
2023-05-23T11:26:33.052Z,96022.47
2023-05-23T11:27:39.350Z,96003.25
2023-05-23T11:28:59.233Z,95983.56
2023-05-23T11:30:06.585Z,95970.16
2023-05-23T11:31:11.941Z,95989.00
2023-05-23T11:32:17.273Z,95995.56
2023-05-23T11:33:22.676Z,95977.38
2023-05-23T11:34:28.529Z,95977.63
2023-05-23T11:35:33.893Z,95991.44
2023-05-23T11:36:39.165Z,95999.78
2023-05-23T11:37:44.222Z,96017.09
2023-05-23T11:38:46.606Z,96063.09
2023-05-23T11:39:51.308Z,96049.97
2023-05-23T11:40:56.229Z,96050.31
2023-05-23T11:42:02.115Z,96071.84
2023-05-23T11:43:08.094Z,96073.19
2023-05-23T11:44:14.077Z,96078.38
2023-05-23T11:45:18.736Z,96122.97
2023-05-23T11:46:21.779Z,96075.75
2023-05-23T11:47:26.554Z,96075.91
2023-05-23T11:48:31.332Z,96072.41
2023-05-23T11:49:38.193Z,96072.38
2023-05-23T11:50:50.985Z,96057.00
2023-05-23T11:51:53.526Z,96034.44
2023-05-23T11:52:58.618Z,96023.31
2023-05-23T11:54:01.704Z,96025.34
2023-05-23T11:55:07.009Z,96053.06
2023-05-23T11:56:11.821Z,96056.09
2023-05-23T11:57:14.396Z,96047.91
2023-05-23T11:58:19.448Z,96037.09
2023-05-23T11:59:26.348Z,96046.47
2023-05-23T12:00:32.666Z,96037.25
2023-05-23T12:01:37.524Z,96034.41
2023-05-23T12:02:43.275Z,96033.78
2023-05-23T12:03:47.176Z,96033.84
2023-05-23T12:04:54.800Z,96025.47
2023-05-23T12:05:57.034Z,96027.50
2023-05-23T12:07:01.766Z,96004.94
2023-05-23T12:08:04.178Z,96021.91
2023-05-23T12:09:09.099Z,96003.72
2023-05-23T12:10:11.742Z,95995.56
2023-05-23T12:11:17.850Z,96004.69
2023-05-23T12:12:23.514Z,95989.91
2023-05-23T12:13:29.460Z,95967.28
2023-05-23T12:15:36.160Z,95926.75
2023-05-23T12:16:40.923Z,95927.75
2023-05-23T12:17:45.448Z,95913.91
2023-05-23T12:18:50.373Z,95894.69
2023-05-23T12:19:58.324Z,95904.69
2023-05-23T12:21:06.054Z,95890.41
2023-05-23T12:22:11.058Z,95903.19
2023-05-23T12:23:18.978Z,95904.59
2023-05-23T12:24:25.252Z,95922.53
2023-05-23T12:25:27.396Z,95925.63
2023-05-23T12:26:32.126Z,95938.66
2023-05-23T12:27:38.232Z,95955.75
2023-05-23T12:28:45.409Z,95936.34
2023-05-23T12:29:51.893Z,95942.66
2023-05-23T12:30:56.602Z,95938.66
2023-05-23T12:31:59.714Z,95917.69
2023-05-23T12:33:12.069Z,95942.31
2023-05-23T12:34:14.304Z,95949.94
2023-05-23T12:35:22.065Z,95954.94
2023-05-23T12:36:25.547Z,95960.78
2023-05-23T12:37:31.041Z,95939.63
2023-05-23T12:38:38.127Z,95947.97
2023-05-23T12:39:46.595Z,95960.88
2023-05-23T12:41:11.077Z,95940.19
2023-05-23T12:42:15.765Z,95961.31
2023-05-23T12:43:18.046Z,95951.75
2023-05-23T12:44:22.733Z,95951.53
2023-05-23T12:45:34.445Z,95950.81
2023-05-23T12:46:36.720Z,95955.81
2023-05-23T12:47:41.590Z,95966.06